Time,TemperatureF,DewpointF,PressureIn,WindDirection,WindDirectionDegrees,WindSpeedMPH,WindSpeedGustMPH,Humidity,HourlyPrecipIn,Conditions,Clouds,dailyrainin,SolarRadiationWatts/m^2,SoftwareType,DateUTC
2013-04-13 10:57:00,84.4,75.6,29.97,WNW,282,3.0,-999.0,75,-99.99,,,0.00,360.0,meteohub,2013-04-13 14:57:00,
2013-04-13 11:03:00,83.7,75.2,29.97,WNW,296,5.0,-999.0,76,-99.99,,,0.00,446.0,meteohub,2013-04-13 15:03:00,
2013-04-13 11:11:00,81.9,74.7,29.97,SW,226,5.0,7.0,79,0.00,,,0.00,557.0,meteohub,2013-04-13 15:11:00,
2013-04-13 11:17:00,82.2,74.3,29.96,SW,234,5.0,7.0,77,0.00,,,0.00,626.0,meteohub,2013-04-13 15:17:00,
2013-04-13 11:22:00,81.9,74.3,29.96,West,272,4.0,7.0,78,0.00,,,0.00,383.0,meteohub,2013-04-13 15:22:00,
2013-04-13 11:28:00,81.5,74.3,29.96,SW,219,4.0,6.0,79,0.00,,,0.00,251.0,meteohub,2013-04-13 15:28:00,
2013-04-13 11:35:00,80.8,73.9,29.97,WSW,242,4.0,6.0,80,0.00,,,0.00,142.0,meteohub,2013-04-13 15:35:00,
2013-04-13 11:40:00,80.8,73.9,29.97,WSW,252,0.0,5.0,80,0.00,,,0.00,100.0,meteohub,2013-04-13 15:40:00,
2013-04-13 11:45:00,80.8,73.9,29.97,South,187,2.0,5.0,80,0.00,,,0.00,98.0,meteohub,2013-04-13 15:45:00,
2013-04-13 11:50:00,80.8,73.9,29.97,SSW,207,3.0,6.0,80,0.00,,,0.00,95.0,meteohub,2013-04-13 15:50:00,
2013-04-13 11:57:00,80.8,73.9,29.97,South,190,4.0,6.0,80,0.00,,,0.00,90.0,meteohub,2013-04-13 15:57:00,
2013-04-13 12:02:00,80.8,73.9,29.97,SSW,197,3.0,7.0,80,0.00,,,0.00,84.0,meteohub,2013-04-13 16:02:00,
2013-04-13 12:09:00,80.8,74.8,29.97,SW,217,3.0,7.0,82,0.00,,,0.00,84.0,meteohub,2013-04-13 16:09:00,
2013-04-13 12:14:00,80.4,74.1,29.97,WSW,248,1.0,7.0,81,0.00,,,0.00,102.0,meteohub,2013-04-13 16:14:00,
2013-04-13 12:19:00,80.6,74.7,29.97,WSW,255,3.0,5.0,82,0.00,,,0.00,100.0,meteohub,2013-04-13 16:19:00,
2013-04-13 12:27:00,80.8,75.2,29.96,West,261,2.0,4.0,83,0.00,,,0.00,113.0,meteohub,2013-04-13 16:27:00,
2013-04-13 12:32:00,80.8,75.2,29.97,West,260,0.0,4.0,83,0.00,,,0.00,125.0,meteohub,2013-04-13 16:32:00,
2013-04-13 12:37:00,80.4,74.8,29.97,West,276,2.0,4.0,83,0.00,,,0.00,149.0,meteohub,2013-04-13 16:37:00,
2013-04-13 12:42:00,80.4,74.1,29.96,WSW,248,4.0,4.0,81,0.00,,,0.00,165.0,meteohub,2013-04-13 16:42:00,
2013-04-13 12:52:00,81.0,75.0,29.96,WSW,251,5.0,6.0,82,0.00,,,0.00,202.0,meteohub,2013-04-13 16:52:00,
2013-04-13 12:57:00,80.8,74.5,29.96,SW,232,5.0,7.0,81,0.00,,,0.00,220.0,meteohub,2013-04-13 16:57:00,
2013-04-13 13:03:00,80.8,74.8,29.96,WSW,244,4.0,7.0,82,0.00,,,0.00,223.0,meteohub,2013-04-13 17:03:00,
2013-04-13 13:08:00,81.1,74.7,29.96,WSW,246,3.0,7.0,81,0.00,,,0.00,297.0,meteohub,2013-04-13 17:08:00,
2013-04-13 13:15:00,81.1,74.7,29.96,WSW,242,4.0,7.0,81,0.00,,,0.00,297.0,meteohub,2013-04-13 17:15:00,
2013-04-13 13:21:00,82.8,75.6,29.95,WSW,244,4.0,8.0,79,0.00,,,0.00,747.0,meteohub,2013-04-13 17:21:00,
2013-04-13 13:27:00,82.8,75.2,29.95,South,188,10.0,10.0,78,0.00,,,0.00,563.0,meteohub,2013-04-13 17:27:00,
2013-04-13 13:32:00,82.2,74.3,29.95,SW,219,8.0,12.0,77,0.00,,,0.00,362.0,meteohub,2013-04-13 17:32:00,
2013-04-13 13:39:00,81.3,73.4,29.95,SSE,155,6.0,12.0,77,0.00,,,0.00,385.0,meteohub,2013-04-13 17:39:00,
2013-04-13 13:46:00,82.0,74.5,29.94,South,171,6.0,12.0,78,0.00,,,0.00,1109.0,meteohub,2013-04-13 17:46:00,
2013-04-13 13:52:00,82.6,74.3,29.94,SSE,152,4.0,12.0,76,0.00,,,0.00,1100.0,meteohub,2013-04-13 17:52:00,
2013-04-13 13:57:00,83.1,74.3,29.94,South,188,7.0,11.0,75,0.00,,,0.00,1058.0,meteohub,2013-04-13 17:57:00,
2013-04-13 14:02:00,82.8,73.9,29.94,SE,138,5.0,11.0,75,0.00,,,0.00,1016.0,meteohub,2013-04-13 18:02:00,
2013-04-13 14:08:00,82.9,74.7,29.93,SSE,153,5.0,10.0,76,0.00,,,0.00,998.0,meteohub,2013-04-13 18:08:00,
2013-04-13 14:17:00,83.7,74.1,29.93,South,190,7.0,12.0,73,0.00,,,0.00,255.0,meteohub,2013-04-13 18:17:00,
2013-04-13 14:22:00,82.9,74.1,29.93,South,185,6.0,12.0,75,0.00,,,0.00,239.0,meteohub,2013-04-13 18:22:00,
2013-04-13 14:27:00,82.6,73.8,29.93,SE,141,5.0,11.0,75,0.00,,,0.00,185.0,meteohub,2013-04-13 18:27:00,
2013-04-13 14:28:00,82.8,73.9,29.93,SSE,155,6.0,11.0,75,0.00,,,0.00,202.0,meteohub,2013-04-13 18:28:00,
2013-04-13 14:33:00,82.6,74.3,29.92,South,180,3.0,11.0,76,0.00,,,0.00,116.0,meteohub,2013-04-13 18:33:00,
2013-04-13 14:39:00,82.2,74.3,29.91,SSW,195,5.0,11.0,77,0.00,,,0.00,100.0,meteohub,2013-04-13 18:39:00,
2013-04-13 14:44:00,82.2,73.6,29.92,SSW,199,7.0,10.0,75,0.00,,,0.00,63.0,meteohub,2013-04-13 18:44:00,
2013-04-13 14:49:00,81.9,74.3,29.91,SW,223,5.0,10.0,78,0.00,,,0.00,44.0,meteohub,2013-04-13 18:49:00,
2013-04-13 14:54:00,80.4,74.1,29.91,SW,223,9.0,10.0,81,0.00,,,0.00,51.0,meteohub,2013-04-13 18:54:00,
2013-04-13 14:59:00,79.0,73.8,29.92,SW,236,4.0,10.0,84,0.01,,,0.01,97.0,meteohub,2013-04-13 18:59:00,
2013-04-13 15:04:00,78.1,73.9,29.91,WSW,238,0.0,14.0,87,0.03,,,0.03,139.0,meteohub,2013-04-13 19:04:00,
2013-04-13 15:09:00,78.1,73.9,29.93,WSW,242,0.0,14.0,87,0.05,,,0.05,79.0,meteohub,2013-04-13 19:09:00,
2013-04-13 15:14:00,78.3,74.5,29.93,West,275,0.0,14.0,88,0.05,,,0.05,46.0,meteohub,2013-04-13 19:14:00,
2013-04-13 15:19:00,78.3,74.5,29.94,WNW,296,2.0,4.0,88,0.05,,,0.05,62.0,meteohub,2013-04-13 19:19:00,
2013-04-13 15:24:00,78.1,74.3,29.94,North,355,3.0,3.0,88,0.05,,,0.05,53.0,meteohub,2013-04-13 19:24:00,
2013-04-13 15:29:00,77.7,73.2,29.95,NNW,343,8.0,8.0,86,0.05,,,0.05,44.0,meteohub,2013-04-13 19:29:00,
2013-04-13 15:34:00,76.5,71.6,29.94,North,9,9.0,10.0,85,0.05,,,0.05,107.0,meteohub,2013-04-13 19:34:00,
2013-04-13 15:39:00,75.6,71.1,29.94,NNE,22,1.0,12.0,86,0.05,,,0.05,93.0,meteohub,2013-04-13 19:39:00,
2013-04-13 15:44:00,75.6,71.4,29.93,ENE,57,1.0,12.0,87,0.05,,,0.05,105.0,meteohub,2013-04-13 19:44:00,
2013-04-13 15:49:00,75.2,70.0,29.94,ENE,62,3.0,12.0,84,0.05,,,0.05,118.0,meteohub,2013-04-13 19:49:00,
2013-04-13 15:54:00,74.5,68.5,29.93,ENE,64,9.0,9.0,82,0.05,,,0.05,125.0,meteohub,2013-04-13 19:54:00,
2013-04-13 15:59:00,73.8,68.0,29.93,East,95,10.0,13.0,82,0.04,,,0.05,109.0,meteohub,2013-04-13 19:59:00,
2013-04-13 16:04:00,73.9,68.2,29.92,ESE,120,3.0,13.0,82,0.01,,,0.05,93.0,meteohub,2013-04-13 20:04:00,
2013-04-13 16:09:00,74.7,68.7,29.91,SE,126,0.0,13.0,82,0.01,,,0.06,74.0,meteohub,2013-04-13 20:09:00,
2013-04-13 16:15:00,75.0,69.8,29.92,South,173,2.0,10.0,84,0.01,,,0.06,58.0,meteohub,2013-04-13 20:15:00,
2013-04-13 16:20:00,73.9,69.4,29.92,West,265,6.0,8.0,86,0.01,,,0.06,47.0,meteohub,2013-04-13 20:20:00,
2013-04-13 16:25:00,73.6,69.1,29.91,SW,222,4.0,8.0,86,0.01,,,0.06,49.0,meteohub,2013-04-13 20:25:00,
2013-04-13 16:30:00,73.9,69.8,29.90,SW,229,4.0,8.0,87,0.01,,,0.06,44.0,meteohub,2013-04-13 20:30:00,
2013-04-13 16:36:00,73.8,70.3,29.90,SSW,192,4.0,7.0,89,0.01,,,0.06,37.0,meteohub,2013-04-13 20:36:00,
2013-04-13 16:41:00,73.8,70.7,29.90,SW,225,5.0,7.0,90,0.02,,,0.07,32.0,meteohub,2013-04-13 20:41:00,
2013-04-13 16:45:00,73.9,70.9,29.90,WSW,239,1.0,8.0,90,0.02,,,0.07,26.0,meteohub,2013-04-13 20:45:00,
2013-04-13 16:51:00,74.1,71.2,29.91,WSW,240,1.0,8.0,91,0.02,,,0.07,25.0,meteohub,2013-04-13 20:51:00,
2013-04-13 16:56:00,74.3,71.4,29.91,WSW,240,0.0,8.0,91,0.02,,,0.07,19.0,meteohub,2013-04-13 20:56:00,
2013-04-13 17:01:00,74.5,72.0,29.92,WSW,240,4.0,4.0,92,0.02,,,0.08,18.0,meteohub,2013-04-13 21:01:00,
2013-04-13 17:06:00,74.5,72.0,29.92,SW,229,7.0,7.0,92,0.02,,,0.08,18.0,meteohub,2013-04-13 21:06:00,
2013-04-13 17:11:00,74.8,72.3,29.91,SW,224,2.0,8.0,92,0.02,,,0.08,16.0,meteohub,2013-04-13 21:11:00,
2013-04-13 17:16:00,74.8,72.3,29.91,WNW,295,5.0,8.0,92,0.02,,,0.08,16.0,meteohub,2013-04-13 21:16:00,
2013-04-13 17:21:00,75.0,72.5,29.91,West,271,8.0,8.0,92,0.02,,,0.08,14.0,meteohub,2013-04-13 21:21:00,
2013-04-13 17:26:00,74.8,72.0,29.90,West,265,4.0,9.0,91,0.02,,,0.08,14.0,meteohub,2013-04-13 21:26:00,
2013-04-13 17:31:00,73.9,71.1,29.91,WSW,247,5.0,9.0,91,0.03,,,0.09,16.0,meteohub,2013-04-13 21:31:00,
2013-04-13 17:36:00,73.4,70.3,29.91,West,281,6.0,9.0,90,0.03,,,0.09,16.0,meteohub,2013-04-13 21:36:00,
2013-04-13 17:41:00,73.2,70.2,29.90,WSW,254,7.0,9.0,90,0.02,,,0.09,16.0,meteohub,2013-04-13 21:41:00,
2013-04-13 17:46:00,73.0,70.0,29.90,NW,311,4.0,9.0,90,0.02,,,0.09,16.0,meteohub,2013-04-13 21:46:00,
2013-04-13 17:51:00,73.0,70.0,29.89,WNW,300,3.0,10.0,90,0.02,,,0.09,16.0,meteohub,2013-04-13 21:51:00,
2013-04-13 17:56:00,72.9,70.2,29.89,NW,316,0.0,10.0,91,0.01,,,0.09,16.0,meteohub,2013-04-13 21:56:00,
2013-04-13 18:01:00,72.9,70.2,29.88,WSW,240,0.0,10.0,91,0.01,,,0.09,18.0,meteohub,2013-04-13 22:01:00,
2013-04-13 18:07:00,72.9,70.2,29.90,SW,234,3.0,6.0,91,0.01,,,0.09,16.0,meteohub,2013-04-13 22:07:00,
2013-04-13 18:12:00,72.9,70.3,29.90,SSW,205,0.0,7.0,92,0.01,,,0.09,18.0,meteohub,2013-04-13 22:12:00,
2013-04-13 18:17:00,72.9,70.2,29.90,SSW,198,4.0,8.0,91,0.01,,,0.09,19.0,meteohub,2013-04-13 22:17:00,
2013-04-13 18:22:00,72.9,70.2,29.90,SW,224,4.0,8.0,91,0.01,,,0.09,21.0,meteohub,2013-04-13 22:22:00,
2013-04-13 18:27:00,73.0,70.0,29.90,SW,219,4.0,8.0,90,0.00,,,0.09,21.0,meteohub,2013-04-13 22:27:00,
2013-04-13 18:32:00,73.0,70.0,29.90,SSW,194,4.0,8.0,90,0.00,,,0.09,19.0,meteohub,2013-04-13 22:32:00,
2013-04-13 18:37:00,73.2,70.2,29.91,South,184,4.0,8.0,90,0.00,,,0.09,18.0,meteohub,2013-04-13 22:37:00,
2013-04-13 18:42:00,73.0,70.0,29.91,SSW,200,3.0,9.0,90,0.00,,,0.09,18.0,meteohub,2013-04-13 22:42:00,
2013-04-13 18:47:00,72.9,69.8,29.90,SSW,204,0.0,9.0,90,0.00,,,0.09,16.0,meteohub,2013-04-13 22:47:00,
2013-04-13 18:52:00,73.0,70.0,29.91,SSW,210,4.0,6.0,90,0.00,,,0.09,14.0,meteohub,2013-04-13 22:52:00,
2013-04-13 18:57:00,72.9,69.8,29.92,SW,217,4.0,5.0,90,0.00,,,0.09,14.0,meteohub,2013-04-13 22:57:00,
2013-04-13 19:02:00,72.9,70.2,29.91,SSW,198,0.0,6.0,91,0.00,,,0.09,14.0,meteohub,2013-04-13 23:02:00,
2013-04-13 19:07:00,72.9,70.2,29.91,SSW,200,3.0,6.0,91,0.00,,,0.09,14.0,meteohub,2013-04-13 23:07:00,
2013-04-13 19:12:00,73.0,70.3,29.91,SSW,200,0.0,6.0,91,0.00,,,0.09,16.0,meteohub,2013-04-13 23:12:00,
2013-04-13 19:17:00,73.0,70.3,29.91,SSW,200,0.0,4.0,91,0.00,,,0.09,16.0,meteohub,2013-04-13 23:17:00,
2013-04-13 19:22:00,73.0,70.3,29.91,SSW,200,0.0,3.0,91,0.00,,,0.09,12.0,meteohub,2013-04-13 23:22:00,
2013-04-13 19:27:00,73.0,70.3,29.91,SSW,200,0.0,1.0,91,0.00,,,0.09,11.0,meteohub,2013-04-13 23:27:00,
2013-04-13 19:32:00,73.0,70.3,29.91,SW,235,3.0,3.0,91,0.00,,,0.09,9.0,meteohub,2013-04-13 23:32:00,
2013-04-13 19:37:00,72.9,70.3,29.91,WSW,258,2.0,5.0,92,0.00,,,0.09,7.0,meteohub,2013-04-13 23:37:00,
2013-04-13 19:43:00,72.7,70.2,29.91,WSW,257,2.0,5.0,92,0.00,,,0.09,5.0,meteohub,2013-04-13 23:43:00,
2013-04-13 19:48:00,72.7,70.2,29.91,WSW,257,0.0,5.0,92,0.00,,,0.09,0.0,meteohub,2013-04-13 23:48:00,
2013-04-13 19:53:00,72.9,70.2,29.91,WSW,257,0.0,4.0,91,0.00,,,0.09,0.0,meteohub,2013-04-13 23:53:00,
2013-04-13 19:58:00,72.7,70.0,29.91,WSW,257,0.0,3.0,91,0.00,,,0.09,0.0,meteohub,2013-04-13 23:58:00,
2013-04-13 20:03:00,72.9,70.2,29.91,WSW,257,2.0,2.0,91,0.00,,,0.09,0.0,meteohub,2013-04-14 00:03:00,
2013-04-13 20:08:00,72.7,70.0,29.91,SW,216,3.0,3.0,91,0.00,,,0.09,0.0,meteohub,2013-04-14 00:08:00,
2013-04-13 20:13:00,72.9,70.2,29.91,SSW,202,2.0,3.0,91,0.00,,,0.09,0.0,meteohub,2013-04-14 00:13:00,
2013-04-13 20:19:00,72.9,70.2,29.91,SSW,202,0.0,3.0,91,0.00,,,0.09,0.0,meteohub,2013-04-14 00:19:00,
2013-04-13 20:24:00,73.0,70.3,29.91,SSW,202,0.0,4.0,91,0.00,,,0.09,0.0,meteohub,2013-04-14 00:24:00,
2013-04-13 20:29:00,73.0,70.3,29.91,NW,322,2.0,4.0,91,0.00,,,0.09,0.0,meteohub,2013-04-14 00:29:00,
2013-04-13 20:34:00,73.0,70.5,29.92,North,5,2.0,6.0,92,0.00,,,0.09,0.0,meteohub,2013-04-14 00:34:00,
2013-04-13 20:39:00,72.9,70.3,29.92,NNW,332,0.0,6.0,92,0.00,,,0.09,0.0,meteohub,2013-04-14 00:39:00,
2013-04-13 20:44:00,72.9,70.3,29.92,NNW,332,1.0,6.0,92,0.00,,,0.09,0.0,meteohub,2013-04-14 00:44:00,
2013-04-13 20:49:00,72.7,70.2,29.92,NNW,333,2.0,5.0,92,0.00,,,0.09,0.0,meteohub,2013-04-14 00:49:00,
2013-04-13 20:54:00,72.3,69.8,29.93,NNW,333,0.0,5.0,92,0.00,,,0.09,0.0,meteohub,2013-04-14 00:54:00,
2013-04-13 20:59:00,72.3,69.8,29.94,NNW,333,0.0,3.0,92,0.00,,,0.09,0.0,meteohub,2013-04-14 00:59:00,
2013-04-13 21:04:00,72.3,70.2,29.94,SSE,159,5.0,5.0,93,0.00,,,0.09,0.0,meteohub,2013-04-14 01:04:00,
2013-04-13 21:09:00,72.3,70.2,29.94,SE,146,2.0,6.0,93,0.00,,,0.09,0.0,meteohub,2013-04-14 01:09:00,
2013-04-13 21:14:00,72.7,70.5,29.94,SE,146,1.0,6.0,93,0.00,,,0.09,0.0,meteohub,2013-04-14 01:14:00,
2013-04-13 21:19:00,72.7,70.5,29.93,SE,135,3.0,6.0,93,0.00,,,0.09,0.0,meteohub,2013-04-14 01:19:00,
2013-04-13 21:24:00,72.9,70.7,29.93,ESE,103,4.0,6.0,93,0.00,,,0.09,0.0,meteohub,2013-04-14 01:24:00,
2013-04-13 21:29:00,72.9,70.7,29.94,ESE,112,3.0,5.0,93,0.00,,,0.09,0.0,meteohub,2013-04-14 01:29:00,
2013-04-13 21:34:00,72.9,70.7,29.94,East,101,1.0,5.0,93,0.00,,,0.09,0.0,meteohub,2013-04-14 01:34:00,
2013-04-13 21:39:00,72.9,70.3,29.94,East,83,2.0,5.0,92,0.00,,,0.09,0.0,meteohub,2013-04-14 01:39:00,
2013-04-13 21:44:00,72.9,70.3,29.94,ENE,69,2.0,5.0,92,0.00,,,0.09,0.0,meteohub,2013-04-14 01:44:00,
2013-04-13 21:49:00,73.0,70.5,29.94,ENE,69,1.0,5.0,92,0.00,,,0.09,0.0,meteohub,2013-04-14 01:49:00,
2013-04-13 21:54:00,73.0,70.3,29.95,ENE,69,2.0,5.0,91,0.00,,,0.09,0.0,meteohub,2013-04-14 01:54:00,
2013-04-13 21:59:00,73.0,70.3,29.95,ENE,72,1.0,5.0,91,0.00,,,0.09,0.0,meteohub,2013-04-14 01:59:00,
2013-04-13 22:04:00,73.2,70.5,29.95,East,90,5.0,5.0,91,0.00,,,0.09,0.0,meteohub,2013-04-14 02:04:00,
2013-04-13 22:09:00,73.2,70.5,29.95,East,98,5.0,5.0,91,0.00,,,0.09,0.0,meteohub,2013-04-14 02:09:00,
2013-04-13 22:14:00,73.4,70.5,29.95,East,97,3.0,5.0,91,0.00,,,0.09,0.0,meteohub,2013-04-14 02:14:00,
2013-04-13 22:19:00,73.6,70.7,29.95,ESE,102,1.0,6.0,91,0.00,,,0.09,0.0,meteohub,2013-04-14 02:19:00,
2013-04-13 22:24:00,73.6,70.7,29.96,ESE,102,1.0,6.0,91,0.00,,,0.09,0.0,meteohub,2013-04-14 02:24:00,
2013-04-13 22:29:00,73.6,70.7,29.96,ESE,102,1.0,6.0,91,0.00,,,0.09,0.0,meteohub,2013-04-14 02:29:00,
2013-04-13 22:34:00,73.8,70.9,29.96,ESE,102,0.0,4.0,91,0.00,,,0.09,0.0,meteohub,2013-04-14 02:34:00,
2013-04-13 22:39:00,73.8,70.7,29.96,ESE,102,0.0,4.0,90,0.00,,,0.09,0.0,meteohub,2013-04-14 02:39:00,
2013-04-13 22:44:00,73.8,70.7,29.96,ESE,102,0.0,2.0,90,0.00,,,0.09,0.0,meteohub,2013-04-14 02:44:00,
2013-04-13 22:49:00,73.6,70.7,29.96,ESE,102,0.0,1.0,91,0.00,,,0.09,0.0,meteohub,2013-04-14 02:49:00,
2013-04-13 22:54:00,73.2,70.7,29.96,ESE,102,0.0,1.0,92,0.00,,,0.09,0.0,meteohub,2013-04-14 02:54:00,
2013-04-13 23:00:00,72.9,70.3,29.96,ESE,102,0.0,1.0,92,0.00,,,0.09,0.0,meteohub,2013-04-14 03:00:00,
2013-04-13 23:05:00,72.9,70.7,29.96,ESE,102,0.0,1.0,93,0.00,,,0.09,0.0,meteohub,2013-04-14 03:05:00,
2013-04-13 23:10:00,72.9,70.7,29.96,ESE,102,0.0,1.0,93,0.00,,,0.09,0.0,meteohub,2013-04-14 03:10:00,
2013-04-13 23:15:00,72.9,70.7,29.96,ESE,102,0.0,1.0,93,0.00,,,0.09,0.0,meteohub,2013-04-14 03:15:00,
2013-04-13 23:20:00,72.7,70.5,29.96,ESE,102,0.0,1.0,93,0.00,,,0.09,0.0,meteohub,2013-04-14 03:20:00,
2013-04-13 23:25:00,72.3,70.5,29.96,ESE,102,0.0,1.0,94,0.00,,,0.09,0.0,meteohub,2013-04-14 03:25:00,
2013-04-13 23:30:00,72.3,70.5,29.96,ESE,102,2.0,2.0,94,0.00,,,0.09,0.0,meteohub,2013-04-14 03:30:00,
2013-04-13 23:35:00,72.1,70.3,29.96,ESE,102,1.0,2.0,94,0.00,,,0.09,0.0,meteohub,2013-04-14 03:35:00,
2013-04-13 23:40:00,72.3,70.5,29.96,ESE,102,0.0,2.0,94,0.00,,,0.09,0.0,meteohub,2013-04-14 03:40:00,
2013-04-13 23:45:00,72.5,70.7,29.96,ESE,102,2.0,2.0,94,0.00,,,0.09,0.0,meteohub,2013-04-14 03:45:00,
2013-04-13 23:50:00,72.3,70.2,29.96,ESE,102,0.0,3.0,93,0.00,,,0.09,0.0,meteohub,2013-04-14 03:50:00,
2013-04-13 23:55:00,72.3,70.2,29.96,ESE,102,1.0,3.0,93,0.00,,,0.09,0.0,meteohub,2013-04-14 03:55:00,